Time;durP1;ratioP1;P1;durP2;ratioP2;P2;SDS_P1;SDS_P2;PMS_P1;PMS_P2;Temp;Humidity;BMP_temperature;BMP_pressure;BME280_temperature;BME280_humidity;BME280_pressure;Samples;Min_cycle;Max_cycle;Signal;HPM_P1;HPM_P2
2022/01/03 00:00:55;;;;;;;3.03;1.67;;;16.80;72.50;;;;;;2014048;28;20160;-77
2022/01/03 00:01:54;;;;;;;7.70;1.93;;;16.80;72.80;;;;;;2012746;28;20160;-78
2022/01/03 00:02:55;;;;;;;2.55;1.50;;;16.80;73.40;;;;;;2013706;28;20158;-77
2022/01/03 00:03:55;;;;;;;8.18;2.10;;;16.70;73.40;;;;;;2013558;28;20175;-78
2022/01/03 00:04:54;;;;;;;3.58;1.98;;;16.80;74.10;;;;;;2013369;28;20166;-78
2022/01/03 00:05:54;;;;;;;6.07;2.00;;;16.80;74.40;;;;;;2013572;28;20264;-78
2022/01/03 00:06:52;;;;;;;5.30;1.92;;;16.80;74.90;;;;;;2013625;28;20240;-78
2022/01/03 00:07:51;;;;;;;2.00;1.47;;;16.80;77.20;;;;;;2013044;28;20184;-78
2022/01/03 00:08:49;;;;;;;2.60;1.53;;;16.80;76.20;;;;;;2013103;28;20220;-78
2022/01/03 00:09:48;;;;;;;5.27;1.80;;;16.90;77.50;;;;;;2013142;28;20177;-78
2022/01/03 00:10:47;;;;;;;3.10;1.67;;;16.80;73.20;;;;;;2013086;28;20201;-79
2022/01/03 00:11:45;;;;;;;2.73;1.60;;;16.80;72.20;;;;;;2012826;28;20236;-78
2022/01/03 00:12:45;;;;;;;2.40;1.73;;;16.80;72.10;;;;;;2012854;28;20185;-77
2022/01/03 00:13:45;;;;;;;7.50;1.75;;;16.80;72.20;;;;;;2012595;28;20428;-77
2022/01/03 00:14:45;;;;;;;3.47;1.50;;;16.80;72.50;;;;;;2010351;28;20204;-78
2022/01/03 00:15:44;;;;;;;3.75;1.85;;;16.80;73.30;;;;;;2006305;28;20173;-79
2022/01/03 00:16:42;;;;;;;2.67;1.70;;;16.80;74.60;;;;;;2006792;28;20283;-79
2022/01/03 00:17:42;;;;;;;4.27;1.53;;;16.80;75.00;;;;;;2006134;28;20275;-79
2022/01/03 00:18:41;;;;;;;3.55;2.10;;;16.80;76.20;;;;;;2005413;28;20169;-79
2022/01/03 00:19:39;;;;;;;3.60;1.80;;;16.80;78.00;;;;;;2006180;28;20177;-79
2022/01/03 00:20:39;;;;;;;3.80;1.40;;;16.80;74.50;;;;;;2005184;28;20177;-78
2022/01/03 00:21:44;;;;;;;3.10;1.83;;;16.80;76.00;;;;;;2008686;28;20226;-79
2022/01/03 00:22:55;;;;;;;6.03;2.22;;;16.80;77.80;;;;;;2008427;28;20235;-79
2022/01/03 00:24:04;;;;;;;3.63;2.03;;;16.70;73.30;;;;;;2005673;28;20162;-78
2022/01/03 00:25:16;;;;;;;2.28;1.73;;;16.70;72.70;;;;;;2005862;28;20172;-79
2022/01/03 00:26:27;;;;;;;3.90;2.00;;;16.80;73.70;;;;;;2005753;28;20216;-79
2022/01/03 00:27:33;;;;;;;3.25;1.85;;;16.70;73.00;;;;;;2005520;28;20166;-78
2022/01/03 00:28:39;;;;;;;5.35;1.98;;;16.80;73.50;;;;;;2005412;28;20177;-79
2022/01/03 00:29:43;;;;;;;4.07;2.17;;;16.80;73.00;;;;;;2005237;28;20514;-78
2022/01/03 00:30:44;;;;;;;2.85;1.60;;;16.70;73.00;;;;;;2005731;28;20212;-78
2022/01/03 00:31:42;;;;;;;8.15;2.15;;;16.70;73.20;;;;;;2006742;28;20631;-78
2022/01/03 00:32:43;;;;;;;3.10;1.80;;;16.70;73.30;;;;;;2007118;28;20219;-78
2022/01/03 00:33:41;;;;;;;3.03;1.70;;;16.80;72.80;;;;;;2007005;28;20404;-78
2022/01/03 00:34:40;;;;;;;3.93;2.17;;;16.70;72.90;;;;;;2006804;28;20227;-78
2022/01/03 00:35:40;;;;;;;5.17;1.93;;;16.70;73.10;;;;;;2006085;28;20635;-78
2022/01/03 00:36:43;;;;;;;8.20;1.98;;;16.80;73.30;;;;;;2006545;28;20486;-79
2022/01/03 00:37:45;;;;;;;3.97;1.73;;;16.70;73.20;;;;;;2007129;28;20166;-78
2022/01/03 00:38:43;;;;;;;6.18;2.60;;;16.80;73.50;;;;;;2006866;28;20177;-78
2022/01/03 00:39:42;;;;;;;2.37;1.83;;;16.70;73.90;;;;;;2007429;28;20658;-78
2022/01/03 00:40:40;;;;;;;3.60;1.63;;;16.70;73.50;;;;;;2006898;28;20201;-77
2022/01/03 00:41:42;;;;;;;2.30;1.60;;;16.70;75.50;;;;;;2006757;28;20184;-78
2022/01/03 00:42:48;;;;;;;4.50;2.00;;;16.70;79.60;;;;;;2006854;28;20264;-78
2022/01/03 00:43:48;;;;;;;2.75;1.92;;;16.70;74.70;;;;;;2013508;28;20277;-78
2022/01/03 00:44:48;;;;;;;3.22;2.00;;;16.70;75.70;;;;;;2006951;28;20687;-78
2022/01/03 00:45:49;;;;;;;3.40;1.48;;;16.70;74.00;;;;;;2006945;28;20207;-78
2022/01/03 00:46:48;;;;;;;1.80;1.40;;;16.70;74.30;;;;;;2005812;28;20201;-79
2022/01/03 00:47:47;;;;;;;3.80;2.00;;;16.70;76.70;;;;;;2005203;28;20185;-79
2022/01/03 00:48:45;;;;;;;2.67;1.60;;;16.70;78.90;;;;;;2005458;28;20231;-78
2022/01/03 00:49:44;;;;;;;4.87;1.70;;;16.70;78.50;;;;;;2006240;28;20239;-78
2022/01/03 00:50:43;;;;;;;3.00;1.93;;;16.70;73.80;;;;;;2006000;28;20205;-78
2022/01/03 00:51:41;;;;;;;3.10;2.20;;;16.70;80.30;;;;;;2013514;28;20259;-79
2022/01/03 00:52:40;;;;;;;2.20;1.50;;;16.70;74.20;;;;;;2005810;28;20176;-78
2022/01/03 00:53:38;;;;;;;4.83;1.60;;;16.70;74.30;;;;;;1997888;28;20624;-78
2022/01/03 00:54:37;;;;;;;3.30;1.63;;;16.70;74.90;;;;;;2005385;28;20254;-78
2022/01/03 00:55:38;;;;;;;2.80;1.60;;;16.70;74.40;;;;;;2006398;28;20173;-78
2022/01/03 00:56:43;;;;;;;2.75;1.80;;;16.70;76.40;;;;;;2006324;28;20439;-79
2022/01/03 00:58:03;;;;;;;6.00;2.35;;;16.70;75.80;;;;;;2005709;28;20177;-78
2022/01/03 00:59:11;;;;;;;3.95;1.80;;;16.60;75.40;;;;;;2006531;28;20226;-80
2022/01/03 01:00:10;;;;;;;3.65;1.80;;;16.70;76.60;;;;;;2007615;28;20153;-78
2022/01/03 01:01:11;;;;;;;8.35;1.55;;;16.60;75.90;;;;;;2006209;28;20173;-78
2022/01/03 01:02:11;;;;;;;3.65;2.00;;;16.60;80.00;;;;;;2005889;28;20174;-78
2022/01/03 01:03:21;;;;;;;2.55;1.55;;;16.70;76.60;;;;;;2006339;28;20173;-78
2022/01/03 01:04:23;;;;;;;4.05;1.70;;;16.70;80.60;;;;;;2006371;28;20521;-79
2022/01/03 01:05:24;;;;;;;4.07;1.80;;;16.80;75.80;;;;;;2006185;28;20166;-79
2022/01/03 01:06:23;;;;;;;4.88;1.75;;;16.70;75.30;;;;;;2006211;28;20256;-78
2022/01/03 01:07:24;;;;;;;5.70;2.08;;;16.70;79.60;;;;;;2005914;28;20180;-78
2022/01/03 01:08:26;;;;;;;5.70;2.38;;;16.60;78.10;;;;;;2005716;28;20546;-78
2022/01/03 01:09:27;;;;;;;1.73;1.20;;;16.60;77.90;;;;;;2006297;28;20604;-77
2022/01/03 01:10:28;;;;;;;2.75;1.48;;;16.70;79.30;;;;;;2006495;28;20545;-78
2022/01/03 01:11:32;;;;;;;2.75;1.75;;;16.70;82.20;;;;;;2006120;28;20208;-79
2022/01/03 01:12:31;;;;;;;4.70;1.80;;;16.70;76.40;;;;;;2005645;28;20176;-79
2022/01/03 01:13:30;;;;;;;3.00;2.00;;;16.70;77.10;;;;;;1998076;28;20189;-78
2022/01/03 01:14:29;;;;;;;4.57;2.47;;;16.70;76.70;;;;;;2005311;28;20620;-80
2022/01/03 01:15:28;;;;;;;4.18;2.45;;;16.60;76.50;;;;;;2005709;28;20863;-78
2022/01/03 01:16:27;;;;;;;3.35;2.45;;;16.60;77.30;;;;;;2005830;28;20232;-77
2022/01/03 01:17:27;;;;;;;3.33;2.22;;;16.60;77.10;;;;;;2006240;28;20644;-78
2022/01/03 01:18:25;;;;;;;3.10;1.88;;;16.60;75.80;;;;;;2005903;28;20523;-78
2022/01/03 01:19:26;;;;;;;4.60;2.00;;;16.60;80.40;;;;;;2006110;28;20176;-77
2022/01/03 01:20:25;;;;;;;3.35;2.00;;;16.60;76.70;;;;;;2005960;28;20178;-77
2022/01/03 01:21:25;;;;;;;5.40;2.45;;;16.60;77.70;;;;;;2005973;28;20324;-77
2022/01/03 01:22:24;;;;;;;3.00;2.05;;;16.60;78.00;;;;;;2006292;28;20173;-78
2022/01/03 01:23:23;;;;;;;4.30;2.60;;;16.60;76.90;;;;;;2006625;28;20177;-79
2022/01/03 01:24:24;;;;;;;4.00;2.20;;;16.60;79.00;;;;;;2005395;28;20701;-78
2022/01/03 01:27:48;;;;;;;10.60;2.88;;;16.60;82.30;;;;;;2005953;28;20427;-77
2022/01/03 01:28:50;;;;;;;3.45;2.22;;;16.60;75.00;;;;;;2005863;28;20157;-78
2022/01/03 01:29:50;;;;;;;3.45;2.05;;;16.60;79.70;;;;;;2005833;28;20181;-77
2022/01/03 01:30:56;;;;;;;3.72;2.38;;;16.60;78.40;;;;;;2005658;28;20213;-78
2022/01/03 01:31:59;;;;;;;5.38;2.28;;;16.60;76.60;;;;;;2006023;28;20621;-78
2022/01/03 01:33:03;;;;;;;5.70;2.40;;;16.60;75.00;;;;;;2005810;28;20204;-78
2022/01/03 01:34:04;;;;;;;10.07;2.90;;;16.60;79.60;;;;;;2006166;28;20619;-78
2022/01/03 01:35:03;;;;;;;3.35;1.83;;;16.60;73.70;;;;;;2005994;28;20200;-78
2022/01/03 01:36:05;;;;;;;2.90;2.25;;;16.60;74.60;;;;;;2005937;28;20177;-78
2022/01/03 01:37:04;;;;;;;4.10;2.33;;;16.60;76.30;;;;;;2006015;28;20656;-78
2022/01/03 01:38:04;;;;;;;4.70;2.40;;;16.60;77.50;;;;;;2006411;28;20169;-78
2022/01/03 01:39:06;;;;;;;4.85;2.15;;;16.50;77.80;;;;;;2005973;28;20173;-78
2022/01/03 01:40:05;;;;;;;2.65;2.00;;;16.60;77.60;;;;;;2005003;28;20173;-78
2022/01/03 01:41:07;;;;;;;3.57;1.93;;;16.60;74.50;;;;;;2005434;28;20180;-78
2022/01/03 01:42:06;;;;;;;3.55;1.80;;;16.60;79.20;;;;;;2005628;28;20771;-78
2022/01/03 01:43:04;;;;;;;3.00;1.90;;;16.50;73.50;;;;;;2004768;28;20174;-78
2022/01/03 01:44:08;;;;;;;5.00;2.43;;;16.50;77.80;;;;;;2005695;28;20274;-79
2022/01/03 01:45:09;;;;;;;2.67;2.08;;;16.50;78.30;;;;;;2005086;28;20256;-79
2022/01/03 01:46:18;;;;;;;2.90;1.88;;;16.50;79.00;;;;;;2004938;28;20602;-79
2022/01/03 01:47:18;;;;;;;3.33;2.50;;;16.10;76.80;;;;;;2005360;28;20630;-78
2022/01/03 01:48:17;;;;;;;4.40;2.47;;;16.60;78.60;;;;;;2005657;28;20704;-78
2022/01/03 01:49:18;;;;;;;3.78;2.25;;;16.60;79.80;;;;;;2005771;28;20223;-78
2022/01/03 01:50:17;;;;;;;6.40;2.25;;;16.50;74.10;;;;;;2005415;28;20249;-78
2022/01/03 01:51:18;;;;;;;2.63;2.00;;;16.60;75.10;;;;;;2005504;28;20177;-78
2022/01/03 01:52:24;;;;;;;5.90;2.50;;;16.50;75.20;;;;;;2005519;28;20224;-78
2022/01/03 01:53:25;;;;;;;4.57;2.55;;;16.60;76.00;;;;;;2005506;28;20166;-77
2022/01/03 01:54:32;;;;;;;9.50;2.40;;;16.60;80.10;;;;;;2004773;28;20173;-78
2022/01/03 01:55:31;;;;;;;5.28;2.80;;;16.50;73.60;;;;;;2005099;28;20165;-78
2022/01/03 01:56:44;;;;;;;3.80;2.57;;;16.50;76.70;;;;;;2005816;28;20196;-78
2022/01/03 01:58:02;;;;;;;3.42;1.98;;;16.60;76.10;;;;;;2005734;28;20193;-78
2022/01/03 01:59:22;;;;;;;4.60;2.00;;;16.60;75.90;;;;;;2005684;28;20177;-79
2022/01/03 02:00:21;;;;;;;5.30;2.92;;;16.50;79.10;;;;;;2005508;28;20153;-78
2022/01/03 02:01:21;;;;;;;3.72;2.40;;;16.50;73.50;;;;;;2005564;28;20231;-79
2022/01/03 02:02:30;;;;;;;3.85;2.25;;;16.60;77.20;;;;;;2004592;28;20487;-78
2022/01/03 02:03:39;;;;;;;4.40;2.20;;;16.50;75.20;;;;;;2005063;28;20172;-79
2022/01/03 02:05:17;;;;;;;3.88;1.90;;;16.60;76.60;;;;;;2005604;28;20161;-78
2022/01/03 02:06:25;;;;;;;3.30;2.00;;;16.60;75.90;;;;;;2005332;28;20195;-78
2022/01/03 02:07:34;;;;;;;4.13;2.10;;;16.50;74.10;;;;;;2005401;28;20681;-78
2022/01/03 02:08:42;;;;;;;4.25;2.20;;;16.60;77.00;;;;;;2005240;28;20225;-79
2022/01/03 02:09:42;;;;;;;4.20;2.42;;;16.60;79.20;;;;;;2004910;28;20185;-79
2022/01/03 02:10:44;;;;;;;3.70;2.13;;;16.50;73.80;;;;;;2004636;28;20227;-79
2022/01/03 02:11:54;;;;;;;3.75;2.05;;;16.60;74.40;;;;;;2005287;28;20169;-79
2022/01/03 02:12:56;;;;;;;4.90;2.03;;;16.60;77.70;;;;;;2005532;28;20165;-78
2022/01/03 02:13:55;;;;;;;2.42;2.22;;;16.50;79.80;;;;;;2005436;28;20205;-78
2022/01/03 02:14:57;;;;;;;4.35;2.42;;;16.60;74.90;;;;;;2005336;28;20173;-78
2022/01/03 02:16:00;;;;;;;2.80;1.90;;;16.60;79.80;;;;;;2005395;28;20252;-78
2022/01/03 02:16:58;;;;;;;3.28;1.77;;;16.60;79.70;;;;;;2005360;28;20185;-78
2022/01/03 02:17:57;;;;;;;3.00;2.30;;;16.50;75.80;;;;;;2005078;28;20226;-78
2022/01/03 02:18:55;;;;;;;4.70;2.20;;;16.60;79.70;;;;;;2005262;28;20172;-79
2022/01/03 02:20:11;;;;;;;2.93;2.10;;;16.60;79.50;;;;;;2005169;28;20195;-78
2022/01/03 02:21:11;;;;;;;2.30;1.73;;;16.60;74.80;;;;;;2005424;28;20180;-78
2022/01/03 02:22:13;;;;;;;3.22;2.00;;;16.50;75.60;;;;;;2005451;28;20216;-78
2022/01/03 02:23:12;;;;;;;3.55;2.00;;;16.60;80.00;;;;;;2005135;28;20176;-78
2022/01/03 02:24:11;;;;;;;3.03;1.80;;;16.50;75.30;;;;;;2004567;28;20180;-79
2022/01/03 02:25:13;;;;;;;3.00;2.20;;;16.50;79.80;;;;;;2004462;28;20448;-78
2022/01/03 02:26:12;;;;;;;3.83;2.13;;;16.50;79.50;;;;;;2005280;28;20503;-78
2022/01/03 02:27:11;;;;;;;3.28;2.13;;;16.50;76.30;;;;;;2005212;28;20639;-78
2022/01/03 02:28:09;;;;;;;2.90;2.03;;;16.50;76.60;;;;;;2005192;28;20290;-78
2022/01/03 02:29:08;;;;;;;3.13;2.07;;;16.50;79.30;;;;;;2005263;28;20406;-78
2022/01/03 02:30:12;;;;;;;4.30;2.07;;;16.60;75.00;;;;;;2004966;28;20169;-78
2022/01/03 02:31:11;;;;;;;5.15;2.38;;;16.50;74.90;;;;;;2005147;28;20176;-78
2022/01/03 02:32:09;;;;;;;3.20;1.80;;;16.50;79.30;;;;;;2005114;28;20201;-78
2022/01/03 02:33:08;;;;;;;2.90;2.00;;;16.50;79.20;;;;;;2005170;28;20426;-78
2022/01/03 02:34:07;;;;;;;5.07;2.60;;;16.50;79.30;;;;;;2004377;28;20220;-78
2022/01/03 02:35:06;;;;;;;2.90;2.03;;;16.50;74.20;;;;;;2004686;28;20462;-78
2022/01/03 02:36:05;;;;;;;3.55;2.10;;;16.50;75.30;;;;;;2005020;28;20177;-78
2022/01/03 02:37:04;;;;;;;2.20;1.60;;;16.50;77.00;;;;;;2005111;28;20314;-78
2022/01/03 02:38:02;;;;;;;2.20;1.57;;;16.20;74.90;;;;;;2005226;28;20399;-78
2022/01/03 02:39:01;;;;;;;3.07;2.17;;;16.20;75.00;;;;;;2005218;28;20180;-79
2022/01/03 02:39:59;;;;;;;2.50;1.60;;;16.50;77.00;;;;;;2005189;28;20640;-78
2022/01/03 02:40:58;;;;;;;3.27;2.00;;;16.50;76.20;;;;;;2005200;28;20189;-78
2022/01/03 02:41:56;;;;;;;3.40;2.20;;;16.50;77.60;;;;;;2004930;28;20201;-78
2022/01/03 02:42:55;;;;;;;2.90;1.93;;;16.50;78.10;;;;;;2005136;28;20485;-78
2022/01/03 02:43:54;;;;;;;2.70;1.93;;;16.50;75.20;;;;;;2005121;28;20169;-78
2022/01/03 02:45:19;;;;;;;3.13;2.03;;;16.50;79.70;;;;;;2005290;28;20162;-78
2022/01/03 02:46:18;;;;;;;3.50;2.10;;;16.50;72.20;;;;;;2005611;28;20212;-78
2022/01/03 02:47:23;;;;;;;3.23;2.13;;;16.50;72.20;;;;;;2004421;28;20562;-78
2022/01/03 02:48:22;;;;;;;3.22;1.75;;;16.50;74.10;;;;;;2004607;28;20181;-78
2022/01/03 02:49:21;;;;;;;3.90;2.30;;;16.40;73.00;;;;;;2005180;28;20181;-78
2022/01/03 02:50:24;;;;;;;3.40;1.80;;;16.50;78.40;;;;;;2004911;28;20200;-78
2022/01/03 02:51:22;;;;;;;4.13;1.95;;;16.50;72.20;;;;;;2005262;28;20620;-78
2022/01/03 02:52:22;;;;;;;4.13;2.03;;;16.50;76.30;;;;;;2005266;28;20239;-78
2022/01/03 02:53:21;;;;;;;5.40;2.25;;;16.50;73.50;;;;;;2004946;28;20176;-78
2022/01/03 02:54:20;;;;;;;8.35;2.22;;;16.50;79.60;;;;;;2004590;28;20183;-78
2022/01/03 02:55:19;;;;;;;3.10;1.60;;;16.50;79.20;;;;;;2005013;28;20169;-78
2022/01/03 02:56:17;;;;;;;2.45;1.75;;;16.40;73.80;;;;;;2004852;28;20165;-77
2022/01/03 02:57:22;;;;;;;2.03;1.60;;;16.40;71.90;;;;;;2004920;28;20536;-78
2022/01/03 02:58:21;;;;;;;3.65;2.92;;;16.40;71.70;;;;;;2005122;28;20184;-78
2022/01/03 02:59:19;;;;;;;2.50;1.60;;;16.40;71.70;;;;;;2004475;28;20185;-78
2022/01/03 03:00:24;;;;;;;4.60;2.00;;;16.50;71.80;;;;;;2004463;28;20252;-78
2022/01/03 03:01:23;;;;;;;3.30;2.10;;;16.50;72.20;;;;;;2005126;28;20670;-78
2022/01/03 03:02:23;;;;;;;2.43;1.83;;;16.40;72.40;;;;;;2004990;28;20174;-78
2022/01/03 03:03:23;;;;;;;3.15;1.63;;;16.50;72.60;;;;;;2004289;28;20284;-78
2022/01/03 03:04:21;;;;;;;3.08;1.88;;;16.50;72.70;;;;;;2004699;28;20172;-78
2022/01/03 03:05:20;;;;;;;3.93;1.83;;;16.50;72.70;;;;;;2004731;28;20169;-78
2022/01/03 03:06:18;;;;;;;3.53;1.87;;;16.50;72.80;;;;;;2004903;28;20204;-78
2022/01/03 03:07:22;;;;;;;3.43;2.13;;;16.40;72.70;;;;;;2004903;28;20578;-78
2022/01/03 03:08:22;;;;;;;5.82;2.90;;;16.50;72.80;;;;;;2004899;28;20668;-79
2022/01/03 03:09:21;;;;;;;2.13;1.58;;;16.50;72.90;;;;;;2004984;28;20184;-79
2022/01/03 03:10:24;;;;;;;3.30;1.95;;;16.40;73.00;;;;;;2005080;28;20173;-77
2022/01/03 03:11:22;;;;;;;2.88;2.30;;;16.40;73.10;;;;;;2005073;28;20161;-79
2022/01/03 03:12:22;;;;;;;2.87;1.80;;;16.40;73.20;;;;;;2004136;28;20181;-78
2022/01/03 03:13:22;;;;;;;3.25;1.73;;;16.50;73.30;;;;;;2004353;28;20206;-78
2022/01/03 03:14:20;;;;;;;3.88;2.25;;;16.40;73.50;;;;;;2004908;28;20191;-78
2022/01/03 03:15:19;;;;;;;3.00;1.80;;;16.40;73.90;;;;;;2004849;28;20706;-78
2022/01/03 03:16:17;;;;;;;2.37;1.70;;;16.40;73.70;;;;;;2004790;28;20176;-78
2022/01/03 03:17:19;;;;;;;2.40;1.73;;;16.40;73.80;;;;;;2004867;28;20173;-77
2022/01/03 03:18:18;;;;;;;2.33;1.60;;;16.40;74.00;;;;;;2004356;28;20173;-78
2022/01/03 03:19:16;;;;;;;3.03;1.80;;;16.50;74.10;;;;;;2004461;28;20200;-78
2022/01/03 03:20:23;;;;;;;3.07;2.27;;;16.40;74.30;;;;;;2004950;28;20184;-77
2022/01/03 03:21:23;;;;;;;3.47;2.00;;;16.40;74.60;;;;;;2004977;28;20168;-78
2022/01/03 03:22:27;;;;;;;4.80;2.00;;;16.40;75.10;;;;;;2004260;28;20183;-78
2022/01/03 03:23:27;;;;;;;2.50;1.50;;;16.40;75.40;;;;;;2004503;28;20161;-78
2022/01/03 03:24:25;;;;;;;3.50;1.67;;;16.40;76.10;;;;;;2004231;28;20177;-78
2022/01/03 03:25:33;;;;;;;3.13;1.83;;;16.40;77.30;;;;;;2004224;28;20200;-78
2022/01/03 03:26:31;;;;;;;3.47;1.95;;;16.50;80.20;;;;;;2004266;28;20201;-78
2022/01/03 03:27:30;;;;;;;2.57;1.90;;;16.40;74.80;;;;;;2004321;28;20212;-78
2022/01/03 03:28:28;;;;;;;3.53;1.83;;;16.40;71.90;;;;;;2004972;28;20169;-78
2022/01/03 03:29:28;;;;;;;2.57;1.70;;;16.40;71.90;;;;;;2004886;28;20169;-77
2022/01/03 03:30:30;;;;;;;3.20;1.95;;;16.40;71.90;;;;;;2004786;28;20205;-78
2022/01/03 03:31:29;;;;;;;2.60;1.80;;;16.40;71.90;;;;;;2004913;28;20200;-78
2022/01/03 03:32:27;;;;;;;2.90;1.60;;;16.40;72.00;;;;;;2012037;28;20276;-78
2022/01/03 03:33:29;;;;;;;3.20;2.13;;;16.40;72.20;;;;;;2012116;28;20176;-78
2022/01/03 03:34:27;;;;;;;4.38;1.88;;;16.40;72.70;;;;;;2004101;28;20177;-78
2022/01/03 03:35:26;;;;;;;2.13;1.63;;;16.40;74.30;;;;;;2004131;28;20256;-77
2022/01/03 03:36:24;;;;;;;2.70;1.80;;;16.50;77.10;;;;;;2004615;28;20203;-77
2022/01/03 03:37:23;;;;;;;3.03;1.97;;;16.40;79.50;;;;;;2004148;28;20640;-77
2022/01/03 03:38:25;;;;;;;1.83;1.30;;;16.40;73.90;;;;;;2004382;28;20165;-77
2022/01/03 03:39:24;;;;;;;2.60;1.80;;;16.40;72.00;;;;;;2004626;28;20169;-78
2022/01/03 03:40:22;;;;;;;2.63;1.90;;;16.50;73.70;;;;;;2004775;28;20231;-77
2022/01/03 03:41:21;;;;;;;2.40;1.70;;;16.30;75.90;;;;;;2004840;28;20179;-78
2022/01/03 03:42:19;;;;;;;2.33;1.63;;;16.40;77.40;;;;;;2004767;28;20667;-78
2022/01/03 03:43:18;;;;;;;2.80;1.70;;;16.40;75.20;;;;;;2004997;28;20173;-78
2022/01/03 03:44:17;;;;;;;3.10;1.97;;;16.40;80.20;;;;;;2004711;28;20180;-78
2022/01/03 03:45:15;;;;;;;3.53;1.87;;;16.40;73.00;;;;;;2004737;28;20409;-78
2022/01/03 03:46:14;;;;;;;1.40;1.30;;;16.40;72.80;;;;;;2004746;28;20177;-78
2022/01/03 03:47:13;;;;;;;3.93;2.10;;;16.40;74.60;;;;;;2004786;28;20180;-78
2022/01/03 03:48:12;;;;;;;3.25;2.20;;;16.40;75.40;;;;;;2004983;28;20173;-78
2022/01/03 03:49:11;;;;;;;3.03;1.80;;;16.40;78.40;;;;;;2004737;28;20522;-78
2022/01/03 03:50:10;;;;;;;1.80;1.50;;;16.40;76.30;;;;;;2011800;28;20179;-78
2022/01/03 03:51:09;;;;;;;2.53;1.92;;;16.40;74.10;;;;;;2004044;28;20224;-78
2022/01/03 03:52:08;;;;;;;3.63;2.10;;;16.30;75.30;;;;;;2004122;28;20176;-79
2022/01/03 03:53:07;;;;;;;2.70;1.73;;;16.40;75.00;;;;;;1996006;28;20672;-78
2022/01/03 03:54:05;;;;;;;5.50;2.23;;;16.40;79.10;;;;;;1996505;28;20272;-78
2022/01/03 03:55:05;;;;;;;3.57;1.93;;;16.40;78.80;;;;;;2003671;28;20415;-79
2022/01/03 03:56:04;;;;;;;4.45;2.00;;;16.40;73.00;;;;;;2004729;28;20165;-79
2022/01/03 03:57:03;;;;;;;1.93;1.60;;;16.40;72.10;;;;;;2004713;28;20581;-79
2022/01/03 03:58:03;;;;;;;4.70;1.90;;;16.40;72.20;;;;;;2004655;28;20157;-79
2022/01/03 03:59:01;;;;;;;3.55;1.48;;;16.40;72.20;;;;;;2004922;28;20188;-79
2022/01/03 04:00:00;;;;;;;2.67;1.70;;;16.40;72.30;;;;;;2003970;28;20599;-79
2022/01/03 04:00:58;;;;;;;2.97;1.87;;;16.30;72.60;;;;;;2003955;28;20188;-78
2022/01/03 04:01:58;;;;;;;4.13;2.10;;;16.40;74.80;;;;;;2004696;28;20530;-79
2022/01/03 04:02:56;;;;;;;2.38;1.70;;;16.40;77.60;;;;;;2004261;28;20708;-79
2022/01/03 04:03:54;;;;;;;6.20;1.90;;;16.40;79.50;;;;;;2004216;28;20204;-79
2022/01/03 04:04:53;;;;;;;3.53;2.13;;;16.40;73.00;;;;;;2004687;28;20276;-79
2022/01/03 04:05:51;;;;;;;2.43;1.60;;;16.40;72.30;;;;;;2004837;28;20235;-79
2022/01/03 04:06:50;;;;;;;4.70;2.10;;;16.40;72.40;;;;;;2006207;28;20227;-79
2022/01/03 04:07:49;;;;;;;2.47;1.67;;;16.40;72.50;;;;;;2006221;28;20591;-79
2022/01/03 04:08:47;;;;;;;3.33;1.63;;;16.40;72.60;;;;;;2006154;28;20262;-79
2022/01/03 04:09:46;;;;;;;3.20;1.83;;;16.40;72.80;;;;;;2006435;28;20177;-79
2022/01/03 04:10:44;;;;;;;3.90;2.10;;;16.40;73.00;;;;;;2006463;28;20215;-79
2022/01/03 04:11:43;;;;;;;5.30;2.10;;;16.40;76.20;;;;;;2013450;28;20183;-79
2022/01/03 04:12:46;;;;;;;3.77;1.60;;;16.30;72.20;;;;;;2013666;28;20180;-79
2022/01/03 04:13:44;;;;;;;3.60;1.70;;;16.40;72.70;;;;;;2013472;28;20246;-78
2022/01/03 04:14:43;;;;;;;4.80;2.07;;;16.30;73.50;;;;;;2013504;28;20211;-78
2022/01/03 04:15:41;;;;;;;4.10;1.93;;;16.30;80.30;;;;;;2006729;28;20169;-78
2022/01/03 04:16:40;;;;;;;3.73;1.97;;;16.30;74.80;;;;;;2006017;28;20690;-78
2022/01/03 04:17:38;;;;;;;3.53;2.23;;;16.40;72.60;;;;;;2006195;28;20231;-78
2022/01/03 04:18:37;;;;;;;2.53;1.47;;;16.40;72.80;;;;;;2006166;28;20513;-79
2022/01/03 04:19:35;;;;;;;2.93;1.67;;;16.30;72.80;;;;;;2005554;28;20193;-78
2022/01/03 04:20:34;;;;;;;3.80;1.80;;;16.30;73.00;;;;;;2005440;28;20532;-78
2022/01/03 04:21:33;;;;;;;2.60;1.77;;;16.30;75.20;;;;;;2005999;28;20714;-78
2022/01/03 04:22:31;;;;;;;3.03;1.60;;;16.30;80.50;;;;;;2006167;28;20499;-78
2022/01/03 04:23:30;;;;;;;2.63;1.50;;;16.30;73.10;;;;;;2005429;28;20199;-79
2022/01/03 04:24:28;;;;;;;3.77;2.17;;;16.40;72.70;;;;;;2005551;28;20188;-79
2022/01/03 04:25:27;;;;;;;2.03;1.83;;;16.40;73.80;;;;;;2006023;28;20183;-79
2022/01/03 04:26:25;;;;;;;4.70;1.97;;;16.30;75.90;;;;;;2005842;28;20235;-79
2022/01/03 04:27:25;;;;;;;2.67;1.87;;;16.30;80.30;;;;;;2006161;28;20184;-79
2022/01/03 04:28:23;;;;;;;2.70;1.90;;;16.30;72.90;;;;;;2006096;28;20648;-79
2022/01/03 04:29:22;;;;;;;3.57;1.90;;;16.30;72.40;;;;;;2006014;28;20206;-79
2022/01/03 04:30:20;;;;;;;3.10;1.53;;;16.30;73.60;;;;;;2006086;28;20197;-78
2022/01/03 04:31:19;;;;;;;3.10;1.83;;;16.40;80.30;;;;;;2006049;28;20247;-79
2022/01/03 04:32:17;;;;;;;3.93;1.80;;;16.40;74.70;;;;;;2006097;28;20177;-79
2022/01/03 04:33:16;;;;;;;5.13;2.57;;;16.30;72.20;;;;;;2006084;28;20165;-79
2022/01/03 04:34:15;;;;;;;3.40;1.80;;;16.30;72.60;;;;;;2006206;28;20564;-79
2022/01/03 04:35:15;;;;;;;2.38;1.70;;;16.30;76.70;;;;;;2005606;28;20177;-79
2022/01/03 04:36:14;;;;;;;2.60;1.75;;;16.30;76.50;;;;;;2005560;28;20667;-79
2022/01/03 04:37:14;;;;;;;3.00;1.73;;;16.30;78.50;;;;;;2006062;28;20189;-79
2022/01/03 04:38:13;;;;;;;3.58;1.73;;;16.30;79.90;;;;;;2006006;28;20173;-79
2022/01/03 04:39:12;;;;;;;3.10;1.67;;;16.30;79.30;;;;;;2006022;28;20655;-79
2022/01/03 04:40:10;;;;;;;3.00;1.80;;;16.30;73.20;;;;;;2006135;28;20180;-79
2022/01/03 04:41:10;;;;;;;6.13;2.30;;;16.30;80.10;;;;;;2005708;28;20176;-79
2022/01/03 04:42:10;;;;;;;2.95;1.60;;;16.30;79.20;;;;;;2009549;28;20196;-79
2022/01/03 04:43:14;;;;;;;3.15;1.73;;;16.30;79.80;;;;;;2018033;28;20164;-78
2022/01/03 04:44:13;;;;;;;3.10;1.77;;;16.30;79.50;;;;;;2010532;28;20166;-79
2022/01/03 04:45:11;;;;;;;3.70;2.07;;;16.30;73.30;;;;;;2009195;28;20605;-79
2022/01/03 04:46:10;;;;;;;3.30;1.77;;;16.30;73.00;;;;;;2010428;28;20192;-79
2022/01/03 04:47:08;;;;;;;2.67;1.67;;;16.30;73.50;;;;;;2010488;28;20197;-79
2022/01/03 04:48:07;;;;;;;4.33;1.97;;;16.30;79.90;;;;;;2010612;28;20204;-78
2022/01/03 04:49:07;;;;;;;2.13;1.40;;;16.30;78.80;;;;;;2009303;28;20203;-78
2022/01/03 04:50:07;;;;;;;3.20;1.92;;;16.30;79.40;;;;;;2005175;28;20521;-80
2022/01/03 04:51:06;;;;;;;4.30;1.90;;;16.30;80.90;;;;;;2005468;28;20634;-79
2022/01/03 04:52:04;;;;;;;2.13;1.70;;;16.30;79.90;;;;;;2006138;28;20173;-79
2022/01/03 04:53:03;;;;;;;2.47;1.70;;;16.30;74.30;;;;;;2005976;28;20574;-77
2022/01/03 04:54:02;;;;;;;2.23;1.80;;;16.40;72.50;;;;;;2006019;28;20169;-79
2022/01/03 04:55:01;;;;;;;2.88;1.95;;;16.30;72.80;;;;;;2005365;28;20223;-78
2022/01/03 04:56:01;;;;;;;3.90;2.17;;;16.30;80.30;;;;;;2005345;28;20223;-78
2022/01/03 04:57:00;;;;;;;1.90;1.70;;;16.30;74.20;;;;;;2006002;28;20185;-78
2022/01/03 04:57:59;;;;;;;2.70;1.60;;;16.30;76.60;;;;;;2006064;28;20342;-78
2022/01/03 04:58:58;;;;;;;3.55;2.03;;;16.30;81.80;;;;;;2005190;28;20224;-78
2022/01/03 04:59:56;;;;;;;2.87;1.80;;;16.30;79.90;;;;;;2005428;28;20553;-78
2022/01/03 05:00:55;;;;;;;2.30;1.40;;;16.30;73.50;;;;;;2005899;28;20922;-78
2022/01/03 05:01:53;;;;;;;3.60;2.17;;;16.30;72.60;;;;;;2005752;28;20192;-78
2022/01/03 05:02:52;;;;;;;2.47;1.70;;;16.30;73.20;;;;;;2005851;28;20220;-78
2022/01/03 05:03:51;;;;;;;2.10;1.50;;;16.30;77.70;;;;;;2006005;28;20513;-78
2022/01/03 05:04:50;;;;;;;4.53;2.03;;;16.30;80.80;;;;;;2005908;28;20267;-79
2022/01/03 05:05:48;;;;;;;2.57;1.60;;;16.30;73.20;;;;;;2006017;28;20181;-79
2022/01/03 05:06:47;;;;;;;3.30;1.60;;;16.30;81.00;;;;;;2013287;28;20211;-79
2022/01/03 05:07:46;;;;;;;3.17;1.90;;;16.30;73.30;;;;;;2013173;28;20175;-77
2022/01/03 05:08:45;;;;;;;4.17;2.33;;;16.30;72.90;;;;;;2006145;28;20232;-79
2022/01/03 05:09:43;;;;;;;3.23;1.73;;;16.30;74.70;;;;;;2013117;28;20423;-78
2022/01/03 05:10:43;;;;;;;5.33;1.83;;;16.30;80.50;;;;;;2012984;28;20451;-78
2022/01/03 05:11:42;;;;;;;2.75;1.48;;;16.30;79.60;;;;;;2006252;28;20555;-78
2022/01/03 05:12:40;;;;;;;3.47;1.70;;;16.30;73.50;;;;;;2005793;28;20255;-78
2022/01/03 05:13:39;;;;;;;4.20;2.00;;;16.30;72.80;;;;;;2005966;28;20227;-79
2022/01/03 05:14:38;;;;;;;2.67;1.90;;;16.30;72.90;;;;;;2005616;28;20180;-78
2022/01/03 05:15:37;;;;;;;3.20;1.95;;;16.30;73.00;;;;;;2005784;28;20170;-78
2022/01/03 05:16:35;;;;;;;4.37;1.70;;;16.30;76.20;;;;;;2005875;28;20219;-78
2022/01/03 05:17:34;;;;;;;2.00;1.40;;;16.30;75.60;;;;;;2005762;28;20200;-78
2022/01/03 05:18:33;;;;;;;1.60;1.30;;;16.30;81.60;;;;;;2005870;28;20187;-78